createdAt,value
2017-05-25T00:00:44.834Z,91.20
2017-05-25T00:03:11.534Z,91.10
2017-05-25T00:05:38.270Z,90.80
2017-05-25T00:08:05.011Z,91.20
2017-05-25T00:10:31.722Z,91.00
2017-05-25T00:12:58.417Z,91.40
2017-05-25T00:15:25.149Z,91.20
2017-05-25T00:17:51.895Z,91.00
2017-05-25T00:20:18.623Z,91.20
2017-05-25T00:22:45.384Z,91.30
2017-05-25T00:25:12.130Z,91.20
2017-05-25T00:27:38.819Z,91.00
2017-05-25T00:30:05.510Z,91.30
2017-05-25T00:32:32.251Z,91.00
2017-05-25T00:34:58.946Z,91.50
2017-05-25T00:37:25.647Z,91.40
2017-05-25T00:39:52.379Z,91.40
2017-05-25T00:42:19.118Z,91.10
2017-05-25T00:44:45.829Z,91.00
2017-05-25T00:47:12.606Z,91.00
2017-05-25T00:49:39.302Z,90.90
2017-05-25T00:52:05.990Z,90.80
2017-05-25T00:54:32.731Z,91.00
2017-05-25T00:56:59.437Z,90.60
2017-05-25T00:59:26.136Z,91.00
2017-05-25T01:01:52.938Z,90.60
2017-05-25T01:04:19.621Z,90.50
2017-05-25T01:06:46.319Z,90.90
2017-05-25T01:09:13.094Z,90.20
2017-05-25T01:11:39.828Z,90.40
2017-05-25T01:14:06.522Z,89.10
2017-05-25T01:16:33.226Z,88.20
2017-05-25T01:18:59.971Z,88.30
2017-05-25T01:21:26.690Z,88.50
2017-05-25T01:23:53.410Z,87.90
2017-05-25T01:26:20.149Z,87.40
2017-05-25T01:28:46.840Z,87.30
2017-05-25T01:31:13.530Z,86.70
2017-05-25T01:33:40.262Z,87.60
2017-05-25T01:36:06.958Z,87.30
2017-05-25T01:38:33.703Z,86.90
2017-05-25T01:41:00.401Z,90.00
2017-05-25T01:43:27.140Z,86.20
2017-05-25T01:45:53.861Z,87.40
2017-05-25T01:48:20.562Z,86.10
2017-05-25T01:50:47.260Z,88.00
2017-05-25T01:53:13.995Z,87.90
2017-05-25T01:55:40.687Z,88.90
2017-05-25T01:58:07.374Z,87.10
2017-05-25T02:00:34.108Z,87.10
2017-05-25T02:03:00.895Z,86.10
2017-05-25T02:05:27.618Z,87.00
2017-05-25T02:07:54.310Z,85.40
2017-05-25T02:10:21.051Z,86.00
2017-05-25T02:12:47.738Z,86.80
2017-05-25T02:15:21.590Z,85.30
2017-05-25T02:17:48.302Z,85.10
2017-05-25T02:20:14.995Z,83.80
2017-05-25T02:22:41.769Z,84.40
2017-05-25T02:25:08.467Z,84.40
2017-05-25T02:27:35.160Z,83.60
2017-05-25T02:30:01.926Z,84.70
2017-05-25T02:32:28.614Z,84.00
2017-05-25T02:34:55.310Z,84.80
2017-05-25T02:37:22.038Z,84.20
2017-05-25T02:39:48.782Z,85.70
2017-05-25T02:42:15.541Z,86.40
2017-05-25T02:44:42.296Z,86.00
2017-05-25T02:47:08.996Z,86.40
2017-05-25T02:49:36.099Z,85.80
2017-05-25T02:52:02.845Z,86.60
2017-05-25T02:54:29.571Z,87.00
2017-05-25T02:56:57.058Z,86.60
2017-05-25T02:59:23.787Z,85.80
2017-05-25T03:01:50.476Z,86.20
2017-05-25T03:04:17.195Z,86.80
2017-05-25T03:06:43.923Z,87.00
2017-05-25T03:09:10.618Z,86.60
2017-05-25T03:11:37.350Z,86.80
2017-05-25T03:14:04.048Z,87.40
2017-05-25T03:16:30.774Z,87.80
2017-05-25T03:18:57.697Z,89.00
2017-05-25T03:21:24.392Z,87.50
2017-05-25T03:23:51.079Z,88.40
2017-05-25T03:26:24.710Z,88.30
2017-05-25T03:28:51.418Z,88.50
2017-05-25T03:31:18.167Z,88.00
2017-05-25T03:33:44.863Z,87.70
2017-05-25T03:36:11.566Z,87.30
2017-05-25T03:38:38.275Z,87.30
2017-05-25T03:41:04.963Z,86.60
2017-05-25T03:43:31.710Z,86.20
2017-05-25T03:45:58.410Z,86.40
2017-05-25T03:48:25.119Z,86.70
2017-05-25T03:50:51.851Z,87.30
2017-05-25T03:53:18.543Z,86.70
2017-05-25T03:55:45.715Z,86.60
2017-05-25T03:58:12.439Z,86.90
2017-05-25T04:00:39.157Z,86.00
2017-05-25T04:03:05.862Z,86.60
2017-05-25T04:05:32.578Z,85.90
2017-05-25T04:07:59.314Z,86.80
2017-05-25T04:10:26.031Z,86.60
2017-05-25T04:12:52.727Z,86.40
2017-05-25T04:15:19.499Z,86.70
2017-05-25T04:17:46.192Z,86.70
2017-05-25T04:20:12.914Z,86.50
2017-05-25T04:22:39.642Z,86.00
2017-05-25T04:25:06.339Z,86.60
2017-05-25T04:27:33.031Z,85.70
2017-05-25T04:29:59.784Z,86.30
2017-05-25T04:32:26.523Z,86.60
2017-05-25T04:34:53.223Z,85.50
2017-05-25T04:37:19.972Z,85.50
2017-05-25T04:39:46.671Z,86.00
2017-05-25T04:42:13.378Z,86.60
2017-05-25T04:44:40.096Z,85.50
2017-05-25T04:47:06.890Z,85.40
2017-05-25T04:49:33.585Z,85.50
2017-05-25T04:52:00.290Z,85.80
2017-05-25T04:54:27.039Z,84.50
2017-05-25T04:56:53.778Z,84.30
2017-05-25T04:59:20.482Z,84.30
2017-05-25T05:01:47.175Z,86.10
2017-05-25T05:04:13.906Z,85.10
2017-05-25T05:06:40.598Z,84.80
2017-05-25T05:09:07.290Z,85.00
2017-05-25T05:11:34.030Z,85.30
2017-05-25T05:14:00.749Z,85.90
2017-05-25T05:16:27.480Z,85.90
2017-05-25T05:18:54.220Z,85.40
2017-05-25T05:21:20.952Z,85.30
2017-05-25T05:23:47.649Z,85.20
2017-05-25T05:26:14.407Z,85.60
2017-05-25T05:28:41.102Z,85.80
2017-05-25T05:31:07.802Z,85.60
2017-05-25T05:33:34.568Z,85.50
2017-05-25T05:36:01.288Z,85.80
2017-05-25T05:38:28.006Z,86.50
2017-05-25T05:40:54.734Z,85.20
2017-05-25T05:43:21.442Z,85.00
2017-05-25T05:45:48.142Z,84.90
2017-05-25T05:48:14.906Z,84.60
2017-05-25T05:50:41.610Z,84.50
2017-05-25T05:53:08.299Z,84.30
2017-05-25T05:55:35.034Z,84.40
2017-05-25T05:58:01.726Z,84.60
2017-05-25T06:00:28.413Z,82.90
2017-05-25T06:02:55.174Z,83.50
2017-05-25T06:05:21.870Z,83.70
2017-05-25T06:07:48.584Z,82.80
2017-05-25T06:10:15.347Z,82.50
2017-05-25T06:12:42.060Z,81.70
2017-05-25T06:15:08.794Z,82.20
2017-05-25T06:17:35.535Z,82.10
2017-05-25T06:20:02.226Z,81.40
2017-05-25T06:22:28.922Z,81.50
2017-05-25T06:24:55.662Z,81.50
2017-05-25T06:27:22.343Z,81.60
2017-05-25T06:29:49.058Z,81.20
2017-05-25T06:32:15.878Z,81.00
2017-05-25T06:34:42.574Z,81.60
2017-05-25T06:37:09.322Z,81.00
2017-05-25T06:39:36.030Z,81.10
2017-05-25T06:42:02.778Z,81.00
2017-05-25T06:44:29.529Z,79.90
2017-05-25T06:46:56.262Z,80.40
2017-05-25T06:49:22.967Z,79.00
2017-05-25T06:51:49.779Z,81.10
2017-05-25T06:54:16.498Z,78.80
2017-05-25T06:56:43.182Z,77.10
2017-05-25T06:59:17.037Z,77.70
2017-05-25T07:01:43.766Z,77.70
2017-05-25T07:04:10.526Z,77.50
2017-05-25T07:06:37.242Z,77.70
2017-05-25T07:09:03.998Z,77.00
2017-05-25T07:11:30.699Z,77.10
2017-05-25T07:13:57.423Z,76.20
2017-05-25T07:16:24.171Z,76.80
2017-05-25T07:18:50.925Z,75.40
2017-05-25T07:21:17.629Z,75.40
2017-05-25T07:23:44.324Z,76.20
2017-05-25T07:26:11.055Z,75.10
2017-05-25T07:28:37.759Z,74.00
2017-05-25T07:31:04.498Z,75.30
2017-05-25T07:33:31.253Z,74.00
2017-05-25T07:35:57.949Z,75.30
2017-05-25T07:38:24.659Z,76.60
2017-05-25T07:40:51.443Z,74.50
2017-05-25T07:43:18.242Z,74.80
2017-05-25T07:45:44.974Z,73.20
2017-05-25T07:48:11.671Z,73.50
2017-05-25T07:50:38.412Z,71.50
2017-05-25T07:53:05.091Z,71.40
2017-05-25T07:55:31.783Z,71.30
2017-05-25T07:57:58.539Z,70.60
2017-05-25T08:00:25.238Z,70.70
2017-05-25T08:02:52.019Z,70.80
2017-05-25T08:05:18.714Z,71.70
2017-05-25T08:07:45.411Z,72.00
2017-05-25T08:10:12.155Z,71.50
2017-05-25T08:12:38.882Z,71.80
2017-05-25T08:15:05.566Z,72.00
2017-05-25T08:17:32.259Z,72.80
2017-05-25T08:19:58.987Z,73.10
2017-05-25T08:22:24.999Z,73.10
2017-05-25T08:24:51.722Z,74.50
2017-05-25T08:27:18.426Z,75.40
2017-05-25T08:29:45.172Z,73.00
2017-05-25T08:32:11.859Z,73.30
2017-05-25T08:34:38.554Z,71.80
2017-05-25T08:37:05.282Z,72.00
2017-05-25T08:39:32.018Z,70.60
2017-05-25T08:41:58.718Z,69.90
2017-05-25T08:44:25.471Z,70.10
2017-05-25T08:46:52.222Z,71.60
2017-05-25T08:49:18.958Z,70.60
2017-05-25T08:51:45.664Z,70.30
2017-05-25T08:54:12.362Z,71.10
2017-05-25T08:56:39.078Z,71.20
2017-05-25T08:59:05.776Z,70.00
2017-05-25T09:01:32.499Z,71.60
2017-05-25T09:03:59.182Z,70.90
2017-05-25T09:06:25.922Z,69.70
2017-05-25T09:08:52.747Z,70.00
2017-05-25T09:11:19.457Z,69.60
2017-05-25T09:13:46.206Z,70.00
2017-05-25T09:16:12.903Z,69.60
2017-05-25T09:18:39.624Z,68.70
2017-05-25T09:21:06.357Z,67.70
2017-05-25T09:23:33.058Z,67.00
2017-05-25T09:25:59.751Z,68.30
2017-05-25T09:28:26.475Z,68.00
2017-05-25T09:30:53.166Z,68.10
2017-05-25T09:33:19.850Z,67.70
2017-05-25T09:35:48.349Z,65.30
2017-05-25T09:38:15.155Z,65.50
2017-05-25T09:40:41.895Z,65.30
2017-05-25T09:43:08.582Z,65.70
2017-05-25T09:45:35.309Z,64.20
2017-05-25T09:48:02.072Z,64.40
2017-05-25T09:50:28.774Z,62.90
2017-05-25T09:52:55.463Z,60.80
2017-05-25T09:55:22.211Z,59.20
2017-05-25T09:57:48.939Z,60.10
2017-05-25T10:00:15.666Z,59.60
2017-05-25T10:02:42.399Z,59.60
2017-05-25T10:05:09.100Z,58.70
2017-05-25T10:07:35.791Z,59.10
2017-05-25T10:10:02.514Z,58.70
2017-05-25T10:12:29.284Z,58.40
2017-05-25T10:14:56.022Z,58.00
2017-05-25T10:17:22.757Z,57.30
2017-05-25T10:19:49.478Z,58.20
2017-05-25T10:22:16.233Z,58.60
2017-05-25T10:24:42.927Z,58.10
2017-05-25T10:27:09.631Z,57.80
2017-05-25T10:29:36.423Z,57.90
2017-05-25T10:32:03.198Z,57.50
2017-05-25T10:34:29.898Z,57.90
2017-05-25T10:36:56.587Z,57.70
2017-05-25T10:39:23.335Z,57.50
2017-05-25T10:41:50.063Z,58.10
2017-05-25T10:44:16.779Z,57.70
2017-05-25T10:46:43.465Z,57.90
2017-05-25T10:49:10.195Z,56.90
2017-05-25T10:51:36.939Z,56.40
2017-05-25T10:54:03.715Z,56.20
2017-05-25T10:56:30.478Z,56.90
2017-05-25T10:58:57.170Z,56.60
2017-05-25T11:01:23.918Z,56.90
2017-05-25T11:03:50.606Z,57.50
2017-05-25T11:06:17.293Z,58.10
2017-05-25T11:08:44.059Z,58.00
2017-05-25T11:11:10.871Z,58.60
2017-05-25T11:13:37.587Z,59.10
2017-05-25T11:16:04.339Z,59.30
2017-05-25T11:18:31.732Z,58.60
2017-05-25T11:20:58.440Z,57.00
2017-05-25T11:23:25.134Z,55.70
2017-05-25T11:25:51.878Z,56.20
2017-05-25T11:28:18.566Z,55.70
2017-05-25T11:30:45.269Z,55.20
2017-05-25T11:33:11.991Z,54.20
2017-05-25T11:35:38.739Z,54.10
2017-05-25T11:38:05.434Z,55.10
2017-05-25T11:40:32.136Z,53.10
2017-05-25T11:42:58.878Z,53.40
2017-05-25T11:45:25.585Z,53.00
2017-05-25T11:47:52.293Z,52.60
2017-05-25T11:50:19.344Z,52.60
2017-05-25T11:52:46.030Z,52.20
2017-05-25T11:55:12.722Z,51.50
2017-05-25T11:57:39.470Z,51.10
2017-05-25T12:00:06.183Z,51.10
2017-05-25T12:02:32.888Z,51.90
2017-05-25T12:04:59.693Z,51.50
2017-05-25T12:07:26.395Z,51.90
2017-05-25T12:09:53.098Z,52.50
2017-05-25T12:12:19.835Z,52.90
2017-05-25T12:14:46.527Z,53.00
2017-05-25T12:17:13.250Z,53.70
2017-05-25T12:19:39.950Z,54.60
2017-05-25T12:22:06.735Z,54.50
2017-05-25T12:24:33.435Z,53.60
2017-05-25T12:27:00.179Z,53.10
2017-05-25T12:29:26.915Z,53.30
2017-05-25T12:31:53.621Z,54.00
2017-05-25T12:34:20.332Z,54.00
2017-05-25T12:36:47.095Z,54.90
2017-05-25T12:39:13.823Z,54.90
2017-05-25T12:41:40.510Z,55.80
2017-05-25T12:44:07.269Z,55.30
2017-05-25T12:46:33.950Z,55.30
2017-05-25T12:49:00.706Z,53.90
2017-05-25T12:51:27.431Z,54.50
2017-05-25T12:53:54.152Z,53.20
2017-05-25T12:56:20.858Z,53.80
2017-05-25T12:58:54.579Z,54.20
2017-05-25T13:01:21.339Z,54.30
2017-05-25T13:03:48.035Z,53.80
2017-05-25T13:06:14.768Z,54.10
2017-05-25T13:08:41.467Z,53.60
2017-05-25T13:11:08.224Z,53.80
2017-05-25T13:13:34.938Z,54.10
2017-05-25T13:16:01.635Z,53.30
2017-05-25T13:18:28.387Z,52.70
2017-05-25T13:20:55.076Z,51.90
2017-05-25T13:23:21.766Z,49.40
2017-05-25T13:25:48.513Z,48.10
2017-05-25T13:28:15.215Z,47.80
2017-05-25T13:30:41.927Z,48.80
2017-05-25T13:33:08.674Z,48.60
2017-05-25T13:35:35.378Z,49.30
2017-05-25T13:38:02.079Z,50.80
2017-05-25T13:40:28.818Z,51.00
2017-05-25T13:42:55.523Z,51.80
2017-05-25T13:45:22.217Z,51.90
2017-05-25T13:47:49.029Z,51.00
2017-05-25T13:50:14.991Z,51.00
2017-05-25T13:52:41.732Z,50.00
2017-05-25T13:55:08.442Z,47.20
2017-05-25T13:57:35.202Z,43.90
2017-05-25T14:00:01.923Z,40.90
2017-05-25T14:02:28.617Z,40.80
2017-05-25T14:04:55.398Z,40.70
2017-05-25T14:07:22.090Z,40.40
2017-05-25T14:09:48.800Z,41.20
2017-05-25T14:12:15.623Z,42.50
2017-05-25T14:14:42.323Z,44.40
2017-05-25T14:17:09.051Z,45.50
2017-05-25T14:19:35.808Z,46.80
2017-05-25T14:22:02.585Z,47.50
2017-05-25T14:24:29.299Z,47.70
2017-05-25T14:26:55.989Z,47.80
2017-05-25T14:29:22.746Z,47.90
2017-05-25T14:31:49.435Z,48.70
2017-05-25T14:36:53.226Z,48.70
2017-05-25T14:39:19.967Z,48.70
2017-05-25T14:41:46.766Z,49.50
2017-05-25T14:44:13.546Z,49.00
2017-05-25T14:46:40.330Z,48.70
2017-05-25T14:49:07.136Z,48.90
2017-05-25T14:51:33.983Z,49.20
2017-05-25T14:54:00.725Z,49.70
2017-05-25T14:56:27.758Z,49.80
2017-05-25T14:58:54.503Z,50.50
2017-05-25T15:01:21.195Z,50.30
2017-05-25T15:03:47.886Z,50.20
2017-05-25T15:06:14.646Z,50.70
2017-05-25T15:08:41.380Z,49.50
2017-05-25T15:11:08.098Z,49.60
2017-05-25T15:13:34.824Z,48.60
2017-05-25T15:16:01.594Z,48.20
2017-05-25T15:18:28.311Z,47.70
2017-05-25T15:20:55.014Z,47.50
2017-05-25T15:23:21.754Z,47.60
2017-05-25T15:25:48.466Z,48.20
2017-05-25T15:28:15.221Z,49.30
2017-05-25T15:30:42.024Z,49.40
2017-05-25T15:33:08.748Z,49.40
2017-05-25T15:35:35.450Z,49.60
2017-05-25T15:38:02.206Z,49.60
2017-05-25T15:40:28.923Z,50.70
2017-05-25T15:42:55.615Z,50.60
2017-05-25T15:45:22.390Z,52.30
2017-05-25T15:47:49.218Z,50.50
2017-05-25T15:50:15.905Z,49.10
2017-05-25T15:52:42.636Z,48.90
2017-05-25T15:55:09.349Z,48.90
2017-05-25T15:57:36.079Z,49.00
2017-05-25T16:00:02.822Z,49.00
2017-05-25T16:02:29.564Z,48.90
2017-05-25T16:04:56.261Z,48.50
2017-05-25T16:07:22.955Z,48.90
2017-05-25T16:09:49.708Z,49.70
2017-05-25T16:12:16.414Z,49.10
2017-05-25T16:14:43.123Z,49.00
2017-05-25T16:17:09.863Z,49.20
2017-05-25T16:19:36.583Z,49.60
2017-05-25T16:22:03.322Z,49.80
2017-05-25T16:24:30.045Z,50.80
2017-05-25T16:26:56.827Z,50.50
2017-05-25T16:29:23.538Z,51.10
2017-05-25T16:31:50.272Z,51.70
2017-05-25T16:34:16.970Z,52.20
2017-05-25T16:36:43.658Z,51.60
2017-05-25T16:39:10.475Z,52.30
2017-05-25T16:41:37.175Z,52.30
2017-05-25T16:44:03.896Z,52.80
2017-05-25T16:46:30.655Z,53.20
2017-05-25T16:48:57.347Z,53.80
2017-05-25T16:51:24.035Z,54.10
2017-05-25T16:53:50.775Z,54.00
2017-05-25T16:56:17.471Z,54.30
2017-05-25T16:58:44.210Z,54.00
2017-05-25T17:01:10.938Z,54.40
2017-05-25T17:03:37.644Z,54.70
2017-05-25T17:06:04.450Z,55.40
2017-05-25T17:08:31.156Z,55.90
2017-05-25T17:10:57.867Z,56.00
2017-05-25T17:13:24.591Z,56.40
2017-05-25T17:15:51.282Z,55.90
2017-05-25T17:18:18.091Z,56.00
2017-05-25T17:20:44.783Z,56.40
2017-05-25T17:23:11.502Z,57.00
2017-05-25T17:25:38.307Z,57.00
2017-05-25T17:28:05.096Z,56.80
2017-05-25T17:30:31.823Z,57.30
2017-05-25T17:32:58.526Z,58.00
2017-05-25T17:35:25.249Z,58.20
2017-05-25T17:37:51.987Z,58.40
2017-05-25T17:40:18.686Z,59.00
2017-05-25T17:42:45.383Z,59.20
2017-05-25T17:45:12.106Z,58.90
2017-05-25T17:47:38.815Z,59.10
2017-05-25T17:50:05.514Z,59.10
2017-05-25T17:52:32.273Z,58.50
2017-05-25T17:54:58.967Z,59.20
2017-05-25T17:57:25.702Z,59.20
2017-05-25T17:59:52.458Z,59.40
2017-05-25T18:02:19.154Z,58.10
2017-05-25T18:04:45.854Z,58.50
2017-05-25T18:07:12.624Z,58.70
2017-05-25T18:09:39.395Z,58.70
2017-05-25T18:12:06.095Z,58.60
2017-05-25T18:14:32.890Z,58.70
2017-05-25T18:16:59.590Z,59.00
2017-05-25T18:19:26.283Z,59.00
2017-05-25T18:21:53.022Z,58.80
2017-05-25T18:24:19.767Z,58.80
2017-05-25T18:26:46.464Z,59.00
2017-05-25T18:29:13.279Z,59.10
2017-05-25T18:31:40.032Z,59.20
2017-05-25T18:34:06.762Z,59.50
2017-05-25T18:36:33.534Z,59.70
2017-05-25T18:39:00.236Z,59.50
2017-05-25T18:41:26.935Z,59.90
2017-05-25T18:43:53.666Z,60.20
2017-05-25T18:46:20.427Z,60.20
2017-05-25T18:48:47.174Z,60.40
2017-05-25T18:51:13.874Z,60.40
2017-05-25T18:53:40.598Z,61.10
2017-05-25T18:56:07.303Z,61.30
2017-05-25T18:58:34.086Z,62.30
2017-05-25T19:01:00.793Z,62.90
2017-05-25T19:03:27.530Z,63.40
2017-05-25T19:05:54.270Z,63.40
2017-05-25T19:08:20.966Z,63.60
2017-05-25T19:10:47.667Z,63.80
2017-05-25T19:13:14.407Z,64.40
2017-05-25T19:15:41.126Z,64.70
2017-05-25T19:18:07.837Z,65.10
2017-05-25T19:20:34.574Z,65.40
2017-05-25T19:23:01.266Z,65.60
2017-05-25T19:25:28.045Z,66.00
2017-05-25T19:27:54.738Z,66.70
2017-05-25T19:30:21.543Z,67.20
2017-05-25T19:32:48.282Z,67.60
2017-05-25T19:35:14.979Z,68.00
2017-05-25T19:37:41.677Z,68.50
2017-05-25T19:40:08.425Z,68.30
2017-05-25T19:42:35.175Z,68.10
2017-05-25T19:45:01.900Z,69.00
2017-05-25T19:47:28.646Z,68.70
2017-05-25T19:49:55.367Z,69.30
2017-05-25T19:52:22.062Z,70.20
2017-05-25T19:54:48.801Z,69.80
2017-05-25T19:57:15.493Z,69.60
2017-05-25T19:59:42.195Z,70.80
2017-05-25T20:02:08.970Z,71.30
2017-05-25T20:04:35.865Z,71.70
2017-05-25T20:07:02.627Z,72.00
2017-05-25T20:09:29.318Z,71.10
2017-05-25T20:11:56.006Z,70.60
2017-05-25T20:14:22.743Z,70.60
2017-05-25T20:16:49.435Z,71.90
2017-05-25T20:19:16.158Z,73.30
2017-05-25T20:21:42.911Z,73.90
2017-05-25T20:24:09.696Z,73.90
2017-05-25T20:26:36.458Z,72.50
2017-05-25T20:29:03.259Z,74.90
2017-05-25T20:31:29.975Z,74.10
2017-05-25T20:33:56.685Z,73.90
2017-05-25T20:36:23.440Z,73.00
2017-05-25T20:38:50.145Z,75.00
2017-05-25T20:41:16.834Z,75.00
2017-05-25T20:43:43.586Z,75.80
2017-05-25T20:46:10.278Z,75.30
2017-05-25T20:48:36.971Z,76.00
2017-05-25T20:51:03.710Z,75.10
2017-05-25T20:53:30.398Z,77.40
2017-05-25T20:55:57.142Z,76.40
2017-05-25T20:58:23.886Z,77.00
2017-05-25T21:00:50.587Z,76.30
2017-05-25T21:03:17.282Z,78.60
2017-05-25T21:05:43.279Z,78.60
2017-05-25T21:08:09.994Z,77.20
2017-05-25T21:10:36.686Z,77.30
2017-05-25T21:13:03.443Z,79.50
2017-05-25T21:15:30.130Z,79.30
2017-05-25T21:17:56.822Z,79.70
2017-05-25T21:20:23.642Z,80.00
2017-05-25T21:22:50.369Z,78.20
2017-05-25T21:25:17.113Z,80.70
2017-05-25T21:27:43.867Z,80.20
2017-05-25T21:30:10.558Z,80.60
2017-05-25T21:32:37.254Z,79.80
2017-05-25T21:35:03.986Z,80.10
2017-05-25T21:37:30.673Z,79.10
2017-05-25T21:39:57.367Z,81.00
2017-05-25T21:42:24.106Z,82.10
2017-05-25T21:44:50.803Z,80.80
2017-05-25T21:47:17.501Z,81.40
2017-05-25T21:49:44.285Z,82.30
2017-05-25T21:52:10.970Z,81.20
2017-05-25T21:54:37.670Z,82.60
2017-05-25T21:57:04.402Z,80.40
2017-05-25T21:59:38.042Z,82.60
2017-05-25T22:02:04.798Z,83.20
2017-05-25T22:04:31.494Z,83.40
2017-05-25T22:06:58.243Z,83.20
2017-05-25T22:09:24.981Z,81.40
2017-05-25T22:11:51.677Z,80.90
2017-05-25T22:14:18.363Z,83.70
2017-05-25T22:16:45.126Z,81.70
2017-05-25T22:19:11.823Z,83.60
2017-05-25T22:21:38.526Z,83.60
2017-05-25T22:24:05.262Z,82.10
2017-05-25T22:26:31.958Z,82.40
2017-05-25T22:28:58.654Z,82.40
2017-05-25T22:31:25.393Z,83.40
2017-05-25T22:33:52.086Z,83.40
2017-05-25T22:36:18.786Z,84.20
2017-05-25T22:38:45.538Z,82.10
2017-05-25T22:41:12.233Z,83.70
2017-05-25T22:43:38.922Z,82.20
2017-05-25T22:46:05.707Z,83.10
2017-05-25T22:48:32.398Z,84.20
2017-05-25T22:50:59.129Z,83.50
2017-05-25T22:53:25.884Z,83.20
2017-05-25T22:55:52.581Z,84.30
2017-05-25T22:58:19.273Z,83.30
2017-05-25T23:00:46.039Z,85.20
2017-05-25T23:03:12.734Z,86.40
2017-05-25T23:05:39.458Z,85.90
2017-05-25T23:08:06.174Z,86.20
2017-05-25T23:10:32.874Z,84.80
2017-05-25T23:12:59.610Z,85.10
2017-05-25T23:15:26.303Z,84.70
2017-05-25T23:17:52.999Z,84.70
2017-05-25T23:20:19.742Z,84.40
2017-05-25T23:22:46.434Z,85.90
2017-05-25T23:25:13.155Z,86.30
2017-05-25T23:27:39.898Z,86.40
2017-05-25T23:30:06.598Z,86.00
2017-05-25T23:32:33.298Z,87.00
2017-05-25T23:35:00.053Z,86.20
2017-05-25T23:37:26.738Z,85.30
2017-05-25T23:39:53.431Z,86.20
2017-05-25T23:42:20.164Z,85.20
2017-05-25T23:44:46.854Z,84.80
2017-05-25T23:47:13.563Z,85.80
2017-05-25T23:49:40.339Z,85.60
2017-05-25T23:52:07.072Z,85.40
2017-05-25T23:54:33.758Z,85.60
2017-05-25T23:57:00.527Z,86.80
2017-05-25T23:59:27.248Z,87.40
